EBLG

Liège Airport

Liège, Belgium
METAR EBLG 152050Z 04007KT 010V100 CAVOK 22/08 Q1015 NOSIG
Observed Flight Rules
Jul-15 @ 20:50 UTC (22 minutes ago) Visual Flight Rules
Wind Visibility Clouds
40° at 7 knots 10,000+ meters
  • Clear skies
Temperatures Readings
Current 22°C / 72°F
Dewpoint 8°C / 46°F
Humidity 41%
Altimeter 29.97" Hg
Pressure 1015 hPa
Elevation 178
METAR EBLG 152050Z 04007KT 010V100 CAVOK 22/08 Q1015 NOSIG
Observed Flight Rules
Jul-15 @ 20:50 UTC
(22 minutes ago)
VFR
Wind Visibility
40° at 7 knots 10,000+ meters
Clouds
  • Clear skies
Temperature Dewpoint
22°C / 72°F 8°C / 46°F
Humidity Altimeter Pressure
41% 29.97" Hg 1015 hPa